sensor_id;sensor_type;location;lat;lon;timestamp;pressure;altitude;pressure_sealevel;temperature
71897;BMP280;59767;51.344;12.362;2023-08-07T00:03:03;162845.66;;;16.24
71897;BMP280;59767;51.344;12.362;2023-08-07T00:06:08;162828.59;;;16.17
71897;BMP280;59767;51.344;12.362;2023-08-07T00:09:14;162849.59;;;16.25
71897;BMP280;59767;51.344;12.362;2023-08-07T00:12:18;162835.16;;;16.20
71897;BMP280;59767;51.344;12.362;2023-08-07T00:15:22;162824.66;;;16.16
71897;BMP280;59767;51.344;12.362;2023-08-07T00:18:28;162822.03;;;16.15
71897;BMP280;59767;51.344;12.362;2023-08-07T00:21:33;162823.31;;;16.15
71897;BMP280;59767;51.344;12.362;2023-08-07T00:24:39;162824.66;;;16.16
71897;BMP280;59767;51.344;12.362;2023-08-07T00:27:43;162815.47;;;16.12
71897;BMP280;59767;51.344;12.362;2023-08-07T00:30:47;162827.25;;;16.17
71897;BMP280;59767;51.344;12.362;2023-08-07T00:33:51;162836.44;;;16.20
71897;BMP280;59767;51.344;12.362;2023-08-07T00:36:58;162827.25;;;16.17
71897;BMP280;59767;51.344;12.362;2023-08-07T00:40:03;162811.53;;;16.11
71897;BMP280;59767;51.344;12.362;2023-08-07T00:43:07;162828.59;;;16.17
71897;BMP280;59767;51.344;12.362;2023-08-07T00:46:11;162811.53;;;16.11
71897;BMP280;59767;51.344;12.362;2023-08-07T00:49:16;162806.28;;;16.09
71897;BMP280;59767;51.344;12.362;2023-08-07T00:52:21;162799.75;;;16.06
71897;BMP280;59767;51.344;12.362;2023-08-07T00:55:26;162822.03;;;16.15
71897;BMP280;59767;51.344;12.362;2023-08-07T00:58:30;162832.53;;;16.19
71897;BMP280;59767;51.344;12.362;2023-08-07T01:01:35;162843.00;;;16.23
71897;BMP280;59767;51.344;12.362;2023-08-07T01:04:40;162840.38;;;16.22
71897;BMP280;59767;51.344;12.362;2023-08-07T01:07:46;162825.94;;;16.16
71897;BMP280;59767;51.344;12.362;2023-08-07T01:14:36;162814.13;;;16.12
71897;BMP280;59767;51.344;12.362;2023-08-07T01:17:44;162827.25;;;16.17
71897;BMP280;59767;51.344;12.362;2023-08-07T01:20:48;162811.53;;;16.11
71897;BMP280;59767;51.344;12.362;2023-08-07T01:23:52;162816.81;;;16.13
71897;BMP280;59767;51.344;12.362;2023-08-07T01:27:00;162804.97;;;16.08
71897;BMP280;59767;51.344;12.362;2023-08-07T01:30:12;162791.84;;;16.03
71897;BMP280;59767;51.344;12.362;2023-08-07T01:33:31;162797.06;;;16.05
71897;BMP280;59767;51.344;12.362;2023-08-07T01:36:37;162785.28;;;16.01
71897;BMP280;59767;51.344;12.362;2023-08-07T01:39:43;162782.66;;;16.00
71897;BMP280;59767;51.344;12.362;2023-08-07T01:42:49;162782.66;;;16.00
71897;BMP280;59767;51.344;12.362;2023-08-07T01:45:53;162781.38;;;15.99
71897;BMP280;59767;51.344;12.362;2023-08-07T01:48:57;162777.44;;;15.98
71897;BMP280;59767;51.344;12.362;2023-08-07T01:52:02;162768.22;;;15.94
71897;BMP280;59767;51.344;12.362;2023-08-07T01:55:06;162772.16;;;15.96
71897;BMP280;59767;51.344;12.362;2023-08-07T01:58:11;162781.38;;;15.99
71897;BMP280;59767;51.344;12.362;2023-08-07T02:01:16;162777.44;;;15.98
71897;BMP280;59767;51.344;12.362;2023-08-07T02:04:20;162774.81;;;15.97
71897;BMP280;59767;51.344;12.362;2023-08-07T02:07:23;162772.16;;;15.96
71897;BMP280;59767;51.344;12.362;2023-08-07T02:10:28;162787.91;;;16.02
71897;BMP280;59767;51.344;12.362;2023-08-07T02:13:32;162790.56;;;16.03
71897;BMP280;59767;51.344;12.362;2023-08-07T02:16:36;162772.16;;;15.96
71897;BMP280;59767;51.344;12.362;2023-08-07T02:19:40;162760.38;;;15.91
71897;BMP280;59767;51.344;12.362;2023-08-07T02:22:44;162760.38;;;15.91
71897;BMP280;59767;51.344;12.362;2023-08-07T02:25:48;162745.97;;;15.86
71897;BMP280;59767;51.344;12.362;2023-08-07T02:28:53;162741.97;;;15.84
71897;BMP280;59767;51.344;12.362;2023-08-07T02:31:57;162718.41;;;15.75
71897;BMP280;59767;51.344;12.362;2023-08-07T02:35:02;162702.69;;;15.69
71897;BMP280;59767;51.344;12.362;2023-08-07T02:38:06;162700.06;;;15.68
71897;BMP280;59767;51.344;12.362;2023-08-07T02:41:10;162706.63;;;15.71
71897;BMP280;59767;51.344;12.362;2023-08-07T02:44:14;162707.97;;;15.71
71897;BMP280;59767;51.344;12.362;2023-08-07T02:47:21;162714.47;;;15.74
71897;BMP280;59767;51.344;12.362;2023-08-07T02:50:25;162730.19;;;15.80
71897;BMP280;59767;51.344;12.362;2023-08-07T02:53:31;162732.88;;;15.81
71897;BMP280;59767;51.344;12.362;2023-08-07T02:56:35;162732.88;;;15.81
71897;BMP280;59767;51.344;12.362;2023-08-07T02:59:40;162731.53;;;15.80
71897;BMP280;59767;51.344;12.362;2023-08-07T03:02:44;162738.09;;;15.83
71897;BMP280;59767;51.344;12.362;2023-08-07T03:05:49;162731.53;;;15.80
71897;BMP280;59767;51.344;12.362;2023-08-07T03:08:54;162743.31;;;15.85
71897;BMP280;59767;51.344;12.362;2023-08-07T03:11:58;162751.19;;;15.88
71897;BMP280;59767;51.344;12.362;2023-08-07T03:15:08;162727.59;;;15.79
71897;BMP280;59767;51.344;12.362;2023-08-07T03:18:12;162727.59;;;15.79
71897;BMP280;59767;51.344;12.362;2023-08-07T03:21:16;162722.34;;;15.77
71897;BMP280;59767;51.344;12.362;2023-08-07T03:24:20;162726.25;;;15.78
71897;BMP280;59767;51.344;12.362;2023-08-07T03:27:25;162725.03;;;15.78
71897;BMP280;59767;51.344;12.362;2023-08-07T03:30:29;162732.88;;;15.81
71897;BMP280;59767;51.344;12.362;2023-08-07T03:33:33;162735.47;;;15.82
71897;BMP280;59767;51.344;12.362;2023-08-07T03:36:37;162732.88;;;15.81
71897;BMP280;59767;51.344;12.362;2023-08-07T03:39:41;162740.69;;;15.84
71897;BMP280;59767;51.344;12.362;2023-08-07T03:42:47;162749.91;;;15.87
71897;BMP280;59767;51.344;12.362;2023-08-07T03:45:55;162730.19;;;15.80
71897;BMP280;59767;51.344;12.362;2023-08-07T03:49:06;162744.66;;;15.85
71897;BMP280;59767;51.344;12.362;2023-08-07T03:52:10;162731.53;;;15.80
71897;BMP280;59767;51.344;12.362;2023-08-07T03:55:14;162732.88;;;15.81
71897;BMP280;59767;51.344;12.362;2023-08-07T03:58:19;162715.78;;;15.74
71897;BMP280;59767;51.344;12.362;2023-08-07T04:01:23;162705.28;;;15.70
71897;BMP280;59767;51.344;12.362;2023-08-07T04:04:27;162700.06;;;15.68
71897;BMP280;59767;51.344;12.362;2023-08-07T04:07:32;162700.06;;;15.68
71897;BMP280;59767;51.344;12.362;2023-08-07T04:10:37;162707.97;;;15.71
71897;BMP280;59767;51.344;12.362;2023-08-07T04:13:40;162736.81;;;15.82
71897;BMP280;59767;51.344;12.362;2023-08-07T04:16:45;162718.41;;;15.75
71897;BMP280;59767;51.344;12.362;2023-08-07T04:19:49;162709.25;;;15.72
71897;BMP280;59767;51.344;12.362;2023-08-07T04:22:53;162717.06;;;15.75
71897;BMP280;59767;51.344;12.362;2023-08-07T04:25:59;162736.81;;;15.82
71897;BMP280;59767;51.344;12.362;2023-08-07T04:29:03;162736.81;;;15.82
71897;BMP280;59767;51.344;12.362;2023-08-07T04:32:07;162732.88;;;15.81
71897;BMP280;59767;51.344;12.362;2023-08-07T04:35:12;162734.16;;;15.81
71897;BMP280;59767;51.344;12.362;2023-08-07T04:38:16;162728.91;;;15.79
71897;BMP280;59767;51.344;12.362;2023-08-07T04:41:21;162741.97;;;15.84
71897;BMP280;59767;51.344;12.362;2023-08-07T04:44:25;162744.66;;;15.85
71897;BMP280;59767;51.344;12.362;2023-08-07T04:47:29;162753.88;;;15.89
71897;BMP280;59767;51.344;12.362;2023-08-07T04:50:34;162751.19;;;15.88
71897;BMP280;59767;51.344;12.362;2023-08-07T04:53:39;162757.75;;;15.90
71897;BMP280;59767;51.344;12.362;2023-08-07T04:56:43;162757.75;;;15.90
71897;BMP280;59767;51.344;12.362;2023-08-07T04:59:48;162759.03;;;15.91
71897;BMP280;59767;51.344;12.362;2023-08-07T05:02:52;162768.22;;;15.94
71897;BMP280;59767;51.344;12.362;2023-08-07T05:06:01;162769.56;;;15.95
71897;BMP280;59767;51.344;12.362;2023-08-07T05:09:05;162780.06;;;15.99
71897;BMP280;59767;51.344;12.362;2023-08-07T05:12:11;162783.94;;;16.00
71897;BMP280;59767;51.344;12.362;2023-08-07T05:15:15;162804.97;;;16.08
71897;BMP280;59767;51.344;12.362;2023-08-07T05:18:20;162857.44;;;16.28
71897;BMP280;59767;51.344;12.362;2023-08-07T05:21:24;162863.97;;;16.31
71897;BMP280;59767;51.344;12.362;2023-08-07T05:24:28;162866.63;;;16.32
71897;BMP280;59767;51.344;12.362;2023-08-07T05:27:38;162877.13;;;16.36
71897;BMP280;59767;51.344;12.362;2023-08-07T05:30:43;162853.50;;;16.27
71897;BMP280;59767;51.344;12.362;2023-08-07T05:33:47;162841.72;;;16.22
71897;BMP280;59767;51.344;12.362;2023-08-07T05:36:51;162863.97;;;16.31
71897;BMP280;59767;51.344;12.362;2023-08-07T05:39:56;162854.78;;;16.27
71897;BMP280;59767;51.344;12.362;2023-08-07T05:43:00;162849.59;;;16.25
71897;BMP280;59767;51.344;12.362;2023-08-07T05:46:04;162849.59;;;16.25
71897;BMP280;59767;51.344;12.362;2023-08-07T05:49:08;162887.59;;;16.40
71897;BMP280;59767;51.344;12.362;2023-08-07T05:52:14;162900.72;;;16.45
71897;BMP280;59767;51.344;12.362;2023-08-07T05:55:18;162930.84;;;16.56
71897;BMP280;59767;51.344;12.362;2023-08-07T05:58:22;162982.06;;;16.76
71897;BMP280;59767;51.344;12.362;2023-08-07T06:01:26;162968.94;;;16.71
71897;BMP280;59767;51.344;12.362;2023-08-07T06:04:34;162983.34;;;16.76
71897;BMP280;59767;51.344;12.362;2023-08-07T06:07:39;162992.53;;;16.80
71897;BMP280;59767;51.344;12.362;2023-08-07T06:10:43;162995.19;;;16.81
71897;BMP280;59767;51.344;12.362;2023-08-07T06:13:48;162987.25;;;16.78
71897;BMP280;59767;51.344;12.362;2023-08-07T06:16:52;162968.94;;;16.71
71897;BMP280;59767;51.344;12.362;2023-08-07T06:19:57;162945.31;;;16.62
71897;BMP280;59767;51.344;12.362;2023-08-07T06:23:01;162940.09;;;16.60
71897;BMP280;59767;51.344;12.362;2023-08-07T06:26:05;162938.75;;;16.59
71897;BMP280;59767;51.344;12.362;2023-08-07T06:29:12;162946.59;;;16.62
71897;BMP280;59767;51.344;12.362;2023-08-07T06:32:16;162962.34;;;16.68
71897;BMP280;59767;51.344;12.362;2023-08-07T06:35:22;163010.91;;;16.87
71897;BMP280;59767;51.344;12.362;2023-08-07T06:38:27;163037.16;;;16.97
71897;BMP280;59767;51.344;12.362;2023-08-07T06:41:31;163076.47;;;17.12
71897;BMP280;59767;51.344;12.362;2023-08-07T06:44:35;163107.97;;;17.24
71897;BMP280;59767;51.344;12.362;2023-08-07T06:47:39;163148.69;;;17.39
71897;BMP280;59767;51.344;12.362;2023-08-07T06:50:44;163170.97;;;17.48
71897;BMP280;59767;51.344;12.362;2023-08-07T06:53:48;163239.19;;;17.74
71897;BMP280;59767;51.344;12.362;2023-08-07T06:56:52;163253.59;;;17.79
71897;BMP280;59767;51.344;12.362;2023-08-07T06:59:57;163302.19;;;17.98
71897;BMP280;59767;51.344;12.362;2023-08-07T07:03:02;163282.53;;;17.90
71897;BMP280;59767;51.344;12.362;2023-08-07T07:06:06;163252.31;;;17.79
71897;BMP280;59767;51.344;12.362;2023-08-07T07:09:10;163281.22;;;17.90
71897;BMP280;59767;51.344;12.362;2023-08-07T07:12:14;163349.47;;;18.16
71897;BMP280;59767;51.344;12.362;2023-08-07T07:15:19;163416.38;;;18.41
71897;BMP280;59767;51.344;12.362;2023-08-07T07:18:23;163428.25;;;18.46
71897;BMP280;59767;51.344;12.362;2023-08-07T07:21:27;163451.84;;;18.55
71897;BMP280;59767;51.344;12.362;2023-08-07T07:24:32;163457.16;;;18.57
71897;BMP280;59767;51.344;12.362;2023-08-07T07:27:36;163436.09;;;18.49
71897;BMP280;59767;51.344;12.362;2023-08-07T07:30:40;163437.38;;;18.49
71897;BMP280;59767;51.344;12.362;2023-08-07T07:33:44;163451.84;;;18.55
71897;BMP280;59767;51.344;12.362;2023-08-07T07:36:49;163438.72;;;18.50
71897;BMP280;59767;51.344;12.362;2023-08-07T07:39:54;163472.84;;;18.63
71897;BMP280;59767;51.344;12.362;2023-08-07T07:42:59;163512.22;;;18.78
71897;BMP280;59767;51.344;12.362;2023-08-07T07:46:04;163503.09;;;18.74
71897;BMP280;59767;51.344;12.362;2023-08-07T07:49:09;163528.03;;;18.84
71897;BMP280;59767;51.344;12.362;2023-08-07T07:52:14;163593.66;;;19.09
71897;BMP280;59767;51.344;12.362;2023-08-07T07:55:18;163610.72;;;19.15
71897;BMP280;59767;51.344;12.362;2023-08-07T07:58:23;163648.81;;;19.30
71897;BMP280;59767;51.344;12.362;2023-08-07T08:01:27;163726.25;;;19.59
71897;BMP280;59767;51.344;12.362;2023-08-07T08:04:32;163978.44;;;20.55
71897;BMP280;59767;51.344;12.362;2023-08-07T08:07:38;164082.25;;;20.94
71897;BMP280;59767;51.344;12.362;2023-08-07T08:10:44;163991.59;;;20.60
71897;BMP280;59767;51.344;12.362;2023-08-07T08:13:48;164027.09;;;20.73
71897;BMP280;59767;51.344;12.362;2023-08-07T08:16:53;163961.38;;;20.48
71897;BMP280;59767;51.344;12.362;2023-08-07T08:19:57;163882.53;;;20.18
71897;BMP280;59767;51.344;12.362;2023-08-07T08:23:02;163826.06;;;19.97
71897;BMP280;59767;51.344;12.362;2023-08-07T08:26:07;163752.56;;;19.69
71897;BMP280;59767;51.344;12.362;2023-08-07T08:29:14;163690.78;;;19.45
71897;BMP280;59767;51.344;12.362;2023-08-07T08:32:18;163657.94;;;19.33
71897;BMP280;59767;51.344;12.362;2023-08-07T08:35:22;163612.00;;;19.16
71897;BMP280;59767;51.344;12.362;2023-08-07T08:38:27;163572.66;;;19.01
71897;BMP280;59767;51.344;12.362;2023-08-07T08:41:37;163583.13;;;19.05
71897;BMP280;59767;51.344;12.362;2023-08-07T08:44:46;163576.56;;;19.02
71897;BMP280;59767;51.344;12.362;2023-08-07T08:47:51;163605.47;;;19.13
71897;BMP280;59767;51.344;12.362;2023-08-07T08:50:55;163600.19;;;19.11
71897;BMP280;59767;51.344;12.362;2023-08-07T08:54:01;163664.56;;;19.36
71897;BMP280;59767;51.344;12.362;2023-08-07T08:57:06;163640.91;;;19.27
71897;BMP280;59767;51.344;12.362;2023-08-07T09:00:11;163640.91;;;19.27
71897;BMP280;59767;51.344;12.362;2023-08-07T09:03:25;163596.28;;;19.10
71897;BMP280;59767;51.344;12.362;2023-08-07T09:06:31;163579.19;;;19.03
71897;BMP280;59767;51.344;12.362;2023-08-07T09:09:35;163569.97;;;19.00
71897;BMP280;59767;51.344;12.362;2023-08-07T09:12:41;163613.31;;;19.16
71897;BMP280;59767;51.344;12.362;2023-08-07T09:15:47;163693.44;;;19.47
71897;BMP280;59767;51.344;12.362;2023-08-07T09:18:54;163742.03;;;19.65
71897;BMP280;59767;51.344;12.362;2023-08-07T09:21:59;163793.25;;;19.84
71897;BMP280;59767;51.344;12.362;2023-08-07T09:25:03;163889.16;;;20.21
71897;BMP280;59767;51.344;12.362;2023-08-07T09:28:08;163945.59;;;20.42
71897;BMP280;59767;51.344;12.362;2023-08-07T09:31:14;164074.34;;;20.91
71897;BMP280;59767;51.344;12.362;2023-08-07T09:34:23;164050.75;;;20.82
71897;BMP280;59767;51.344;12.362;2023-08-07T09:37:28;164053.31;;;20.83
71897;BMP280;59767;51.344;12.362;2023-08-07T09:40:32;164025.78;;;20.73
71897;BMP280;59767;51.344;12.362;2023-08-07T09:43:37;163995.53;;;20.61
71897;BMP280;59767;51.344;12.362;2023-08-07T09:46:42;163941.69;;;20.41
71897;BMP280;59767;51.344;12.362;2023-08-07T09:49:47;163948.25;;;20.43
71897;BMP280;59767;51.344;12.362;2023-08-07T09:52:52;163937.72;;;20.39
71897;BMP280;59767;51.344;12.362;2023-08-07T09:55:57;163992.94;;;20.60
71897;BMP280;59767;51.344;12.362;2023-08-07T09:59:01;164061.25;;;20.86
71897;BMP280;59767;51.344;12.362;2023-08-07T10:02:05;164034.97;;;20.76
71897;BMP280;59767;51.344;12.362;2023-08-07T10:05:10;163900.94;;;20.25
71897;BMP280;59767;51.344;12.362;2023-08-07T10:08:15;163805.06;;;19.89
71897;BMP280;59767;51.344;12.362;2023-08-07T10:11:20;163765.66;;;19.74
71897;BMP280;59767;51.344;12.362;2023-08-07T10:14:25;163728.88;;;19.60
71897;BMP280;59767;51.344;12.362;2023-08-07T10:17:30;163619.91;;;19.19
71897;BMP280;59767;51.344;12.362;2023-08-07T10:20:36;163630.41;;;19.23
71897;BMP280;59767;51.344;12.362;2023-08-07T10:23:41;163571.31;;;19.00
71897;BMP280;59767;51.344;12.362;2023-08-07T10:26:48;163521.41;;;18.81
71897;BMP280;59767;51.344;12.362;2023-08-07T10:29:54;163551.59;;;18.93
71897;BMP280;59767;51.344;12.362;2023-08-07T10:33:02;163602.84;;;19.12
71897;BMP280;59767;51.344;12.362;2023-08-07T10:36:10;163638.28;;;19.26
71897;BMP280;59767;51.344;12.362;2023-08-07T10:39:15;163610.72;;;19.15
71897;BMP280;59767;51.344;12.362;2023-08-07T10:42:20;163573.94;;;19.01
71897;BMP280;59767;51.344;12.362;2023-08-07T10:45:25;163537.19;;;18.87
71897;BMP280;59767;51.344;12.362;2023-08-07T10:48:30;163564.75;;;18.98
71897;BMP280;59767;51.344;12.362;2023-08-07T10:51:35;163572.66;;;19.01
71897;BMP280;59767;51.344;12.362;2023-08-07T10:54:47;163643.56;;;19.28
71897;BMP280;59767;51.344;12.362;2023-08-07T10:57:51;163752.56;;;19.69
71897;BMP280;59767;51.344;12.362;2023-08-07T11:01:39;163819.56;;;19.94
71897;BMP280;59767;51.344;12.362;2023-08-07T11:04:44;163753.84;;;19.69
71897;BMP280;59767;51.344;12.362;2023-08-07T11:07:48;163701.28;;;19.49
71897;BMP280;59767;51.344;12.362;2023-08-07T11:10:53;163680.28;;;19.42
71897;BMP280;59767;51.344;12.362;2023-08-07T11:13:58;163655.38;;;19.32
71897;BMP280;59767;51.344;12.362;2023-08-07T11:17:04;163671.09;;;19.38
71897;BMP280;59767;51.344;12.362;2023-08-07T11:20:09;163727.59;;;19.59
71897;BMP280;59767;51.344;12.362;2023-08-07T11:23:14;163786.66;;;19.82
71897;BMP280;59767;51.344;12.362;2023-08-07T11:26:19;163799.81;;;19.87
71897;BMP280;59767;51.344;12.362;2023-08-07T11:29:29;163836.56;;;20.01
71897;BMP280;59767;51.344;12.362;2023-08-07T11:32:35;163904.88;;;20.27
71897;BMP280;59767;51.344;12.362;2023-08-07T11:35:43;163895.69;;;20.23
71897;BMP280;59767;51.344;12.362;2023-08-07T11:38:47;163920.66;;;20.33
71897;BMP280;59767;51.344;12.362;2023-08-07T11:41:51;163899.66;;;20.25
71897;BMP280;59767;51.344;12.362;2023-08-07T11:44:56;163882.53;;;20.18
71897;BMP280;59767;51.344;12.362;2023-08-07T11:48:01;163895.69;;;20.23
71897;BMP280;59767;51.344;12.362;2023-08-07T11:51:06;163927.25;;;20.35
71897;BMP280;59767;51.344;12.362;2023-08-07T11:54:14;163943.03;;;20.41
71897;BMP280;59767;51.344;12.362;2023-08-07T11:57:22;163966.63;;;20.50
71897;BMP280;59767;51.344;12.362;2023-08-07T12:00:28;163974.53;;;20.53
71897;BMP280;59767;51.344;12.362;2023-08-07T12:03:36;163970.56;;;20.52
71897;BMP280;59767;51.344;12.362;2023-08-07T12:06:56;163950.88;;;20.44
71897;BMP280;59767;51.344;12.362;2023-08-07T12:10:03;163910.19;;;20.29
71897;BMP280;59767;51.344;12.362;2023-08-07T12:13:08;163914.09;;;20.30
71897;BMP280;59767;51.344;12.362;2023-08-07T12:16:14;163868.09;;;20.13
71897;BMP280;59767;51.344;12.362;2023-08-07T12:19:19;163872.06;;;20.14
71897;BMP280;59767;51.344;12.362;2023-08-07T12:22:27;163920.66;;;20.33
71897;BMP280;59767;51.344;12.362;2023-08-07T12:25:32;164024.44;;;20.72
71897;BMP280;59767;51.344;12.362;2023-08-07T12:28:37;164108.53;;;21.04
71897;BMP280;59767;51.344;12.362;2023-08-07T12:31:41;164042.84;;;20.79
71897;BMP280;59767;51.344;12.362;2023-08-07T12:34:45;163940.34;;;20.40
71897;BMP280;59767;51.344;12.362;2023-08-07T12:37:52;163835.28;;;20.00
71897;BMP280;59767;51.344;12.362;2023-08-07T12:40:56;163773.56;;;19.77
71897;BMP280;59767;51.344;12.362;2023-08-07T12:44:01;163769.56;;;19.75
71897;BMP280;59767;51.344;12.362;2023-08-07T12:47:05;163772.25;;;19.76
71897;BMP280;59767;51.344;12.362;2023-08-07T12:50:10;163753.84;;;19.69
71897;BMP280;59767;51.344;12.362;2023-08-07T12:53:14;163736.75;;;19.63
71897;BMP280;59767;51.344;12.362;2023-08-07T12:56:18;163751.22;;;19.68
71897;BMP280;59767;51.344;12.362;2023-08-07T12:59:23;163735.47;;;19.62
71897;BMP280;59767;51.344;12.362;2023-08-07T13:02:27;163751.22;;;19.68
71897;BMP280;59767;51.344;12.362;2023-08-07T13:05:31;163700.00;;;19.49
71897;BMP280;59767;51.344;12.362;2023-08-07T13:08:37;163618.63;;;19.18
71897;BMP280;59767;51.344;12.362;2023-08-07T13:11:41;163554.22;;;18.94
71897;BMP280;59767;51.344;12.362;2023-08-07T13:14:45;163564.75;;;18.98
71897;BMP280;59767;51.344;12.362;2023-08-07T13:17:49;163659.28;;;19.34
71897;BMP280;59767;51.344;12.362;2023-08-07T13:20:53;163801.16;;;19.87
71897;BMP280;59767;51.344;12.362;2023-08-07T13:23:57;163890.41;;;20.21
71897;BMP280;59767;51.344;12.362;2023-08-07T13:27:01;163919.38;;;20.32
71897;BMP280;59767;51.344;12.362;2023-08-07T13:30:08;163864.19;;;20.11
71897;BMP280;59767;51.344;12.362;2023-08-07T13:33:13;163748.59;;;19.67
71897;BMP280;59767;51.344;12.362;2023-08-07T13:36:17;163623.84;;;19.20
71897;BMP280;59767;51.344;12.362;2023-08-07T13:39:21;163538.50;;;18.88
71897;BMP280;59767;51.344;12.362;2023-08-07T13:42:26;163457.16;;;18.57
71897;BMP280;59767;51.344;12.362;2023-08-07T13:45:31;163342.91;;;18.13
71897;BMP280;59767;51.344;12.362;2023-08-07T13:48:36;163273.38;;;17.87
71897;BMP280;59767;51.344;12.362;2023-08-07T13:51:41;163215.59;;;17.65
71897;BMP280;59767;51.344;12.362;2023-08-07T13:54:45;163203.75;;;17.60
71897;BMP280;59767;51.344;12.362;2023-08-07T13:57:49;163193.28;;;17.56
71897;BMP280;59767;51.344;12.362;2023-08-07T14:00:54;163207.75;;;17.62
71897;BMP280;59767;51.344;12.362;2023-08-07T14:03:58;163257.63;;;17.81
71897;BMP280;59767;51.344;12.362;2023-08-07T14:07:03;163281.22;;;17.90
71897;BMP280;59767;51.344;12.362;2023-08-07T14:10:07;163286.50;;;17.92
71897;BMP280;59767;51.344;12.362;2023-08-07T14:13:12;163308.75;;;18.00
71897;BMP280;59767;51.344;12.362;2023-08-07T14:16:16;163321.91;;;18.05
71897;BMP280;59767;51.344;12.362;2023-08-07T14:19:20;163299.59;;;17.97
71897;BMP280;59767;51.344;12.362;2023-08-07T14:22:25;163257.63;;;17.81
71897;BMP280;59767;51.344;12.362;2023-08-07T14:25:29;163113.22;;;17.26
71897;BMP280;59767;51.344;12.362;2023-08-07T14:28:33;163021.41;;;16.91
71897;BMP280;59767;51.344;12.362;2023-08-07T14:31:37;162974.19;;;16.73
71897;BMP280;59767;51.344;12.362;2023-08-07T14:34:42;162967.63;;;16.70
71897;BMP280;59767;51.344;12.362;2023-08-07T14:37:46;162945.31;;;16.62
71897;BMP280;59767;51.344;12.362;2023-08-07T14:40:52;162955.81;;;16.66
71897;BMP280;59767;51.344;12.362;2023-08-07T14:43:56;162972.84;;;16.72
71897;BMP280;59767;51.344;12.362;2023-08-07T14:47:00;163017.47;;;16.89
71897;BMP280;59767;51.344;12.362;2023-08-07T14:50:05;163073.91;;;17.11
71897;BMP280;59767;51.344;12.362;2023-08-07T14:53:10;163132.91;;;17.33
71897;BMP280;59767;51.344;12.362;2023-08-07T14:56:14;163161.84;;;17.44
71897;BMP280;59767;51.344;12.362;2023-08-07T14:59:18;163191.94;;;17.56
71897;BMP280;59767;51.344;12.362;2023-08-07T15:02:22;163232.69;;;17.71
71897;BMP280;59767;51.344;12.362;2023-08-07T15:05:26;163270.69;;;17.86
71897;BMP280;59767;51.344;12.362;2023-08-07T15:08:30;163317.97;;;18.04
71897;BMP280;59767;51.344;12.362;2023-08-07T15:11:35;163332.41;;;18.09
71897;BMP280;59767;51.344;12.362;2023-08-07T15:14:39;163349.47;;;18.16
71897;BMP280;59767;51.344;12.362;2023-08-07T15:17:43;163371.78;;;18.24
71897;BMP280;59767;51.344;12.362;2023-08-07T15:20:47;163411.16;;;18.39
71897;BMP280;59767;51.344;12.362;2023-08-07T15:23:52;163388.81;;;18.31
71897;BMP280;59767;51.344;12.362;2023-08-07T15:26:56;163365.22;;;18.22
71897;BMP280;59767;51.344;12.362;2023-08-07T15:30:04;163344.22;;;18.14
71897;BMP280;59767;51.344;12.362;2023-08-07T15:33:08;163320.56;;;18.05
71897;BMP280;59767;51.344;12.362;2023-08-07T15:36:13;163294.34;;;17.95
71897;BMP280;59767;51.344;12.362;2023-08-07T15:39:17;163260.22;;;17.82
71897;BMP280;59767;51.344;12.362;2023-08-07T15:42:21;163252.31;;;17.79
71897;BMP280;59767;51.344;12.362;2023-08-07T15:45:26;163211.69;;;17.63
71897;BMP280;59767;51.344;12.362;2023-08-07T15:48:30;163210.34;;;17.63
71897;BMP280;59767;51.344;12.362;2023-08-07T15:51:35;163241.81;;;17.75
71897;BMP280;59767;51.344;12.362;2023-08-07T15:54:39;163269.41;;;17.85
71897;BMP280;59767;51.344;12.362;2023-08-07T15:57:44;163283.81;;;17.91
71897;BMP280;59767;51.344;12.362;2023-08-07T16:00:48;163253.59;;;17.79
71897;BMP280;59767;51.344;12.362;2023-08-07T16:03:52;163253.59;;;17.79
71897;BMP280;59767;51.344;12.362;2023-08-07T16:06:56;163247.09;;;17.77
71897;BMP280;59767;51.344;12.362;2023-08-07T16:10:01;163248.44;;;17.77
71897;BMP280;59767;51.344;12.362;2023-08-07T16:13:05;163227.41;;;17.69
71897;BMP280;59767;51.344;12.362;2023-08-07T16:16:09;163212.97;;;17.64
71897;BMP280;59767;51.344;12.362;2023-08-07T16:19:13;163194.63;;;17.57
71897;BMP280;59767;51.344;12.362;2023-08-07T16:22:18;163184.09;;;17.53
71897;BMP280;59767;51.344;12.362;2023-08-07T16:25:25;163151.31;;;17.40
71897;BMP280;59767;51.344;12.362;2023-08-07T16:28:30;163144.75;;;17.38
71897;BMP280;59767;51.344;12.362;2023-08-07T16:31:34;163098.84;;;17.20
71897;BMP280;59767;51.344;12.362;2023-08-07T16:34:38;163090.94;;;17.17
71897;BMP280;59767;51.344;12.362;2023-08-07T16:37:42;163068.63;;;17.09
71897;BMP280;59767;51.344;12.362;2023-08-07T16:40:48;163047.66;;;17.01
71897;BMP280;59767;51.344;12.362;2023-08-07T16:43:53;163043.72;;;16.99
71897;BMP280;59767;51.344;12.362;2023-08-07T16:46:57;163049.00;;;17.01
71897;BMP280;59767;51.344;12.362;2023-08-07T16:50:02;163068.63;;;17.09
71897;BMP280;59767;51.344;12.362;2023-08-07T16:53:08;163081.75;;;17.14
71897;BMP280;59767;51.344;12.362;2023-08-07T16:56:12;163104.03;;;17.22
71897;BMP280;59767;51.344;12.362;2023-08-07T16:59:17;163098.84;;;17.20
71897;BMP280;59767;51.344;12.362;2023-08-07T17:02:22;163102.75;;;17.22
71897;BMP280;59767;51.344;12.362;2023-08-07T17:05:28;163100.06;;;17.21
71897;BMP280;59767;51.344;12.362;2023-08-07T17:08:32;163088.28;;;17.16
71897;BMP280;59767;51.344;12.362;2023-08-07T17:11:39;163111.97;;;17.25
71897;BMP280;59767;51.344;12.362;2023-08-07T17:14:43;163136.91;;;17.35
71897;BMP280;59767;51.344;12.362;2023-08-07T17:17:47;163131.63;;;17.33
71897;BMP280;59767;51.344;12.362;2023-08-07T17:20:52;163125.06;;;17.30